Aviation Digital Data Service (ADDS)

Output produced by METARs form (0052 UTC 17 July 2019)
found at http://www.aviationweather.gov/metar/data/
 
TAF SUCA 162330Z 1700/1724 03008KT CAVOK TX16/1718Z TN05/1710Z 
     PROB30 
     TEMPO 1703/1708 3000 BR NSC 
     BECMG 1709/1711 36015KT
       
SUDU 162330Z 1700/1724 02005KT CAVOK TX15/1718Z TN04/1710Z 
     PROB30 
     TEMPO 1703/1708 1500 BR NSC
       
SUMU 162330Z 1700/1724 06005KT CAVOK TX15/1718Z TN05/1710Z 
     TEMPO 1700/1706 1500 BR NSC 
     PROB40 
     TEMPO 1702/1706 0500 BCFG BKN003 
     BECMG 1706/1710 36010KT
       
TAF SUAA 162330Z 1700/1724 09005KT CAVOK TX15/1718Z TN05/1710Z 
     TEMPO 1700/1706 3000 BR NSC 
     PROB30 
     TEMPO 1702/1706 0500 BCFG BKN003 
     BECMG 1706/1710 36010KT
       
SULS 162330Z 1700/1724 07005KT 3000 BR NSC TX16/1718Z TN06/1710Z 
     PROB40 
     TEMPO 1700/1706 0200 FG BKN002 
     BECMG 1708/1710 01010KT CAVOK
       
TAF SURV 162330Z 1700/1724 08005KT CAVOK TX17/1718Z TN04/1710Z 
     TEMPO 1700/1712 1500 BR NSC
       
SUSO 162330Z 1700/1724 06005KT CAVOK TX17/1718Z TN03/1710Z 
     PROB30 
     TEMPO 1703/1708 1500 BR NSC